Time;durP1;ratioP1;P1;durP2;ratioP2;P2;SDS_P1;SDS_P2;PMS_P1;PMS_P2;Temp;Humidity;BMP_temperature;BMP_pressure;BME280_temperature;BME280_humidity;BME280_pressure;Samples;Min_cycle;Max_cycle;Signal;HPM_P1;HPM_P2
2021/12/11 00:02:03;;;;;;;3.77;2.10;;;;;;;;;;5015737;28;20419;-66
2021/12/11 00:04:32;;;;;;;6.20;2.57;;;;;;;;;;5015728;28;20385;-65
2021/12/11 00:07:02;;;;;;;7.83;2.50;;;;;;;;;;5015261;28;20407;-65
2021/12/11 00:09:30;;;;;;;3.90;2.30;;;;;;;;;;5015591;28;20809;-65
2021/12/11 00:12:08;;;;;;;3.30;2.50;;;;;;;;;;5015152;28;20922;-65
2021/12/11 00:14:41;;;;;;;2.67;1.70;;;;;;;;;;5015427;28;20526;-65
2021/12/11 00:17:08;;;;;;;5.87;2.60;;;;;;;;;;5015409;28;20384;-65
2021/12/11 00:19:36;;;;;;;2.10;1.57;;;;;;;;;;5015217;28;20467;-66
2021/12/11 00:22:05;;;;;;;3.70;2.27;;;;;;;;;;5015058;28;20503;-65
2021/12/11 00:24:33;;;;;;;3.20;1.83;;;;;;;;;;5015033;28;20483;-65
2021/12/11 00:27:05;;;;;;;4.63;1.93;;;;;;;;;;5014939;28;20932;-65
2021/12/11 00:29:32;;;;;;;2.43;1.90;;;;;;;;;;5014967;28;20392;-65
2021/12/11 00:32:04;;;;;;;2.27;1.47;;;;;;;;;;5015010;28;20788;-65
2021/12/11 00:34:31;;;;;;;2.03;1.70;;;;;;;;;;5013644;28;20448;-65
2021/12/11 00:36:59;;;;;;;3.10;1.97;;;;;;;;;;5014552;28;20418;-66
2021/12/11 00:39:26;;;;;;;2.33;1.77;;;;;;;;;;5014663;28;20963;-65
2021/12/11 00:41:55;;;;;;;3.40;2.00;;;;;;;;;;5014866;28;20427;-65
2021/12/11 00:44:23;;;;;;;3.10;1.43;;;;;;;;;;5014764;28;20415;-66
2021/12/11 00:46:49;;;;;;;2.20;1.70;;;;;;;;;;5014755;28;20412;-65
2021/12/11 00:49:21;;;;;;;2.10;1.30;;;;;;;;;;5014528;28;20404;-64
2021/12/11 00:51:54;;;;;;;2.50;2.00;;;;;;;;;;5014286;28;20399;-66
2021/12/11 00:54:21;;;;;;;2.27;1.67;;;;;;;;;;5014632;28;20454;-65
2021/12/11 00:56:48;;;;;;;1.80;1.60;;;;;;;;;;5014635;28;20396;-64
2021/12/11 00:59:17;;;;;;;3.40;1.40;;;;;;;;;;5014262;28;20399;-64
2021/12/11 01:01:49;;;;;;;1.70;1.40;;;;;;;;;;5014179;28;20767;-65
2021/12/11 01:04:18;;;;;;;2.60;1.60;;;;;;;;;;5013536;28;20404;-66
2021/12/11 01:06:51;;;;;;;1.50;1.30;;;;;;;;;;5014152;28;20407;-64
2021/12/11 01:09:18;;;;;;;3.70;1.53;;;;;;;;;;5014483;28;20425;-66
2021/12/11 01:12:06;;;;;;;2.33;1.80;;;;;;;;;;5013790;28;20404;-64
2021/12/11 01:14:38;;;;;;;2.33;1.60;;;;;;;;;;4994411;28;20463;-66
2021/12/11 01:17:42;;;;;;;2.67;1.53;;;;;;;;;;5014016;28;20821;-65
2021/12/11 01:20:16;;;;;;;1.93;1.53;;;;;;;;;;5005178;28;20415;-64
2021/12/11 01:22:43;;;;;;;3.30;1.70;;;;;;;;;;5013824;28;20419;-65
2021/12/11 01:25:12;;;;;;;4.40;2.13;;;;;;;;;;5013781;28;20457;-64
2021/12/11 01:27:39;;;;;;;4.57;1.50;;;;;;;;;;5014023;28;20411;-64
2021/12/11 01:30:09;;;;;;;3.50;2.10;;;;;;;;;;5014028;28;20419;-64
2021/12/11 01:32:36;;;;;;;1.80;1.60;;;;;;;;;;5013739;28;20427;-65
2021/12/11 01:35:04;;;;;;;2.70;1.67;;;;;;;;;;5013651;28;20448;-64
2021/12/11 01:37:30;;;;;;;2.77;2.10;;;;;;;;;;5013803;28;20400;-65
2021/12/11 01:39:56;;;;;;;4.30;1.67;;;;;;;;;;5013643;28;20396;-65
2021/12/11 01:42:28;;;;;;;1.70;1.30;;;;;;;;;;5013412;28;20460;-66
2021/12/11 01:44:56;;;;;;;2.83;1.90;;;;;;;;;;5013674;28;20404;-65
2021/12/11 01:47:27;;;;;;;1.90;1.53;;;;;;;;;;5013685;28;20400;-65
2021/12/11 01:49:55;;;;;;;4.70;2.00;;;;;;;;;;5013650;28;20388;-66
2021/12/11 01:52:31;;;;;;;2.20;1.73;;;;;;;;;;5013396;28;20946;-66
2021/12/11 01:54:58;;;;;;;1.90;1.30;;;;;;;;;;5013433;28;20482;-66
2021/12/11 01:57:27;;;;;;;2.50;1.40;;;;;;;;;;5013459;28;20400;-65
2021/12/11 02:00:13;;;;;;;4.43;1.80;;;;;;;;;;5013483;28;20487;-65
2021/12/11 02:02:42;;;;;;;1.87;1.47;;;;;;;;;;5013232;28;20416;-65
2021/12/11 02:05:09;;;;;;;5.03;1.47;;;;;;;;;;5013647;28;20821;-65
2021/12/11 02:07:45;;;;;;;1.97;1.40;;;;;;;;;;5013314;28;20408;-65
2021/12/11 02:10:18;;;;;;;4.47;1.80;;;;;;;;;;5009762;28;20412;-65
2021/12/11 02:12:44;;;;;;;2.27;1.70;;;;;;;;;;5006801;28;20547;-64
2021/12/11 02:15:14;;;;;;;2.13;1.50;;;;;;;;;;4993219;28;20992;-64
2021/12/11 02:17:44;;;;;;;2.43;1.30;;;;;;;;;;4993807;28;20451;-65
2021/12/11 02:20:12;;;;;;;2.10;1.50;;;;;;;;;;4993461;28;20412;-65
2021/12/11 02:22:42;;;;;;;2.07;1.73;;;;;;;;;;4993509;28;20455;-64
2021/12/11 02:25:21;;;;;;;2.00;1.60;;;;;;;;;;4993479;28;20904;-64
2021/12/11 02:28:08;;;;;;;5.07;1.80;;;;;;;;;;4993518;28;20384;-64
2021/12/11 02:30:46;;;;;;;2.20;1.77;;;;;;;;;;4993304;28;20416;-64
2021/12/11 02:33:27;;;;;;;2.20;1.57;;;;;;;;;;4993431;28;20906;-65
2021/12/11 02:35:54;;;;;;;2.17;1.50;;;;;;;;;;4993508;28;20423;-64
2021/12/11 02:38:26;;;;;;;4.70;1.50;;;;;;;;;;4993302;28;20439;-65
2021/12/11 02:41:00;;;;;;;2.13;1.50;;;;;;;;;;4993768;28;20873;-64
2021/12/11 02:43:29;;;;;;;2.70;1.83;;;;;;;;;;4993423;28;20438;-65
2021/12/11 02:46:05;;;;;;;2.17;1.50;;;;;;;;;;4993382;28;20412;-64
2021/12/11 02:48:51;;;;;;;1.90;1.33;;;;;;;;;;4993294;28;20396;-64
2021/12/11 02:51:26;;;;;;;2.43;1.70;;;;;;;;;;4993230;28;20486;-64
2021/12/11 02:53:54;;;;;;;1.70;1.40;;;;;;;;;;4993438;28;20566;-65
2021/12/11 02:56:23;;;;;;;3.77;1.97;;;;;;;;;;4993451;28;20778;-64
2021/12/11 02:58:52;;;;;;;6.23;1.70;;;;;;;;;;4993090;28;20454;-64
2021/12/11 03:01:27;;;;;;;2.43;1.90;;;;;;;;;;4993449;28;20796;-65
2021/12/11 03:04:00;;;;;;;2.93;1.40;;;;;;;;;;4993084;28;20931;-65
2021/12/11 03:06:35;;;;;;;2.87;1.80;;;;;;;;;;4993089;28;20400;-65
2021/12/11 03:09:01;;;;;;;4.07;1.70;;;;;;;;;;4993175;28;20882;-64
2021/12/11 03:11:29;;;;;;;1.83;1.37;;;;;;;;;;4992991;28;20401;-65
2021/12/11 03:13:55;;;;;;;2.23;1.50;;;;;;;;;;4993152;28;20464;-66
2021/12/11 03:16:23;;;;;;;2.50;1.60;;;;;;;;;;4993231;28;20748;-65
2021/12/11 03:18:49;;;;;;;4.50;1.40;;;;;;;;;;4993270;28;20404;-64
2021/12/11 03:21:15;;;;;;;2.30;1.60;;;;;;;;;;4993322;28;20412;-64
2021/12/11 03:23:41;;;;;;;3.23;1.67;;;;;;;;;;4993114;28;20772;-65
2021/12/11 03:26:08;;;;;;;1.80;1.47;;;;;;;;;;4993916;28;20413;-64
2021/12/11 03:28:34;;;;;;;2.13;1.77;;;;;;;;;;4996393;28;20404;-65
2021/12/11 03:31:01;;;;;;;3.33;1.90;;;;;;;;;;4996489;28;20416;-65
2021/12/11 03:33:31;;;;;;;2.93;1.83;;;;;;;;;;4996210;28;20459;-64
2021/12/11 03:35:57;;;;;;;5.40;1.97;;;;;;;;;;4996387;28;20768;-65
2021/12/11 03:38:24;;;;;;;2.20;1.60;;;;;;;;;;4995416;28;20407;-64
2021/12/11 03:40:50;;;;;;;2.03;1.70;;;;;;;;;;4996279;28;20716;-65
2021/12/11 03:43:17;;;;;;;5.23;2.00;;;;;;;;;;4996771;28;20651;-65
2021/12/11 03:45:45;;;;;;;2.20;1.50;;;;;;;;;;5006457;28;20422;-65
2021/12/11 03:48:13;;;;;;;2.90;2.00;;;;;;;;;;5012254;28;20442;-65
2021/12/11 03:50:39;;;;;;;2.10;1.53;;;;;;;;;;5015764;28;20415;-65
2021/12/11 03:53:06;;;;;;;4.27;2.13;;;;;;;;;;5015964;28;20426;-67
2021/12/11 03:55:38;;;;;;;3.23;2.70;;;;;;;;;;5015654;28;20483;-65
2021/12/11 03:58:06;;;;;;;4.20;2.20;;;;;;;;;;5015845;28;20410;-65
2021/12/11 04:00:35;;;;;;;3.97;2.23;;;;;;;;;;5015792;28;20823;-65
2021/12/11 04:03:04;;;;;;;4.07;2.47;;;;;;;;;;5015598;28;20420;-66
2021/12/11 04:05:32;;;;;;;6.47;1.70;;;;;;;;;;5015342;28;20407;-65
2021/12/11 04:07:59;;;;;;;3.57;1.90;;;;;;;;;;5015689;28;20767;-65
2021/12/11 04:10:27;;;;;;;2.90;2.00;;;;;;;;;;5015622;28;20400;-65
2021/12/11 04:12:54;;;;;;;2.87;1.83;;;;;;;;;;5015149;28;20443;-65
2021/12/11 04:15:20;;;;;;;5.90;1.60;;;;;;;;;;5015129;28;20498;-66
2021/12/11 04:17:46;;;;;;;2.90;1.80;;;;;;;;;;5015396;28;20461;-66
2021/12/11 04:20:14;;;;;;;6.63;2.10;;;;;;;;;;5015234;28;20966;-65
2021/12/11 04:22:41;;;;;;;4.97;1.80;;;;;;;;;;5010667;28;20443;-66
2021/12/11 04:25:08;;;;;;;2.80;2.60;;;;;;;;;;5004114;28;20422;-66
2021/12/11 04:27:34;;;;;;;4.50;1.90;;;;;;;;;;5005658;28;20846;-66
2021/12/11 04:30:03;;;;;;;6.20;2.33;;;;;;;;;;5015136;28;20423;-66
2021/12/11 04:32:32;;;;;;;2.63;1.97;;;;;;;;;;5014861;28;20965;-65
2021/12/11 04:34:58;;;;;;;2.60;2.20;;;;;;;;;;5014984;28;20553;-65
2021/12/11 04:37:28;;;;;;;10.43;3.80;;;;;;;;;;5014873;28;20444;-65
2021/12/11 04:39:59;;;;;;;3.13;2.20;;;;;;;;;;5014976;28;20484;-66
2021/12/11 04:45:32;;;;;;;4.17;1.97;;;;;;;;;;4998993;28;20478;-65
2021/12/11 04:48:06;;;;;;;2.93;2.23;;;;;;;;;;5014985;28;20388;-66
2021/12/11 04:50:52;;;;;;;3.63;2.00;;;;;;;;;;5014707;28;20426;-66
2021/12/11 04:54:22;;;;;;;6.00;2.70;;;;;;;;;;5014436;28;20419;-65
2021/12/11 05:09:22;;;;;;;5.67;1.93;;;;;;;;;;5014859;28;20420;-65
2021/12/11 05:12:09;;;;;;;2.93;2.40;;;;;;;;;;5014399;28;20431;-65
2021/12/11 05:14:36;;;;;;;3.47;2.77;;;;;;;;;;5014399;28;20522;-65
2021/12/11 05:17:02;;;;;;;2.90;2.40;;;;;;;;;;5014378;28;20427;-66
2021/12/11 05:19:28;;;;;;;3.73;2.20;;;;;;;;;;5014225;28;20882;-65
2021/12/11 05:21:54;;;;;;;3.30;2.73;;;;;;;;;;5014276;28;20423;-66
2021/12/11 05:24:20;;;;;;;3.83;2.30;;;;;;;;;;5014447;28;20399;-66
2021/12/11 05:26:47;;;;;;;2.87;2.57;;;;;;;;;;5014137;28;20453;-65
2021/12/11 05:29:13;;;;;;;2.80;2.30;;;;;;;;;;5014236;28;20507;-66
2021/12/11 05:31:39;;;;;;;2.60;2.20;;;;;;;;;;5013995;28;20407;-66
2021/12/11 05:34:06;;;;;;;3.70;2.37;;;;;;;;;;5014016;28;20808;-65
2021/12/11 05:36:32;;;;;;;2.30;1.90;;;;;;;;;;5013871;28;20892;-66
2021/12/11 05:39:00;;;;;;;3.10;2.17;;;;;;;;;;5013870;28;20400;-66
2021/12/11 05:41:26;;;;;;;2.40;1.63;;;;;;;;;;5014272;28;20408;-65
2021/12/11 05:43:53;;;;;;;2.67;1.97;;;;;;;;;;5013959;28;20498;-65
2021/12/11 05:46:19;;;;;;;3.10;1.73;;;;;;;;;;5013926;28;20404;-65
2021/12/11 05:48:47;;;;;;;4.50;2.10;;;;;;;;;;5013129;28;20486;-66
2021/12/11 05:51:16;;;;;;;2.93;2.30;;;;;;;;;;5014034;28;20899;-65
2021/12/11 05:53:42;;;;;;;2.70;2.50;;;;;;;;;;5013956;28;20497;-65
2021/12/11 05:56:11;;;;;;;5.93;2.57;;;;;;;;;;5013608;28;20402;-65
2021/12/11 05:58:47;;;;;;;2.67;2.17;;;;;;;;;;5013511;28;20456;-66
2021/12/11 06:01:16;;;;;;;3.80;2.10;;;;;;;;;;5013730;28;20368;-66
2021/12/11 06:03:42;;;;;;;3.93;2.33;;;;;;;;;;5013431;28;20434;-65
2021/12/11 06:06:08;;;;;;;3.70;2.27;;;;;;;;;;5013535;28;20395;-66
2021/12/11 06:08:34;;;;;;;2.93;2.37;;;;;;;;;;5013429;28;20406;-65
2021/12/11 06:11:00;;;;;;;3.53;2.30;;;;;;;;;;5013545;28;20403;-65
2021/12/11 06:13:29;;;;;;;2.83;2.53;;;;;;;;;;5013302;28;20439;-65
2021/12/11 06:15:55;;;;;;;3.07;2.37;;;;;;;;;;5013672;28;20457;-65
2021/12/11 06:18:22;;;;;;;2.53;2.30;;;;;;;;;;5013210;28;20755;-65
2021/12/11 06:20:49;;;;;;;3.30;2.73;;;;;;;;;;5013188;28;20403;-65
2021/12/11 06:23:16;;;;;;;3.83;2.27;;;;;;;;;;5013152;28;20469;-66
2021/12/11 06:25:42;;;;;;;5.30;2.20;;;;;;;;;;5013790;28;20481;-65
2021/12/11 06:28:09;;;;;;;2.77;2.20;;;;;;;;;;5013301;28;20392;-65
2021/12/11 06:30:36;;;;;;;2.60;2.20;;;;;;;;;;5013278;28;20400;-65
2021/12/11 06:33:03;;;;;;;2.93;2.57;;;;;;;;;;5013256;28;20416;-65
2021/12/11 06:35:38;;;;;;;2.80;2.40;;;;;;;;;;5013513;28;20439;-65
2021/12/11 06:38:05;;;;;;;4.83;2.67;;;;;;;;;;5013295;28;20494;-65
2021/12/11 06:40:31;;;;;;;4.37;2.20;;;;;;;;;;5013585;28;20419;-65
2021/12/11 06:42:58;;;;;;;2.63;1.93;;;;;;;;;;5013054;28;20412;-65
2021/12/11 06:45:25;;;;;;;3.10;2.30;;;;;;;;;;5013034;28;20466;-65
2021/12/11 06:47:52;;;;;;;3.50;2.50;;;;;;;;;;5013258;28;20491;-65
2021/12/11 06:50:18;;;;;;;5.47;2.40;;;;;;;;;;5013505;28;20776;-65
2021/12/11 06:52:45;;;;;;;3.87;2.57;;;;;;;;;;5013317;28;20424;-65
2021/12/11 06:55:11;;;;;;;4.23;2.20;;;;;;;;;;5012915;28;20526;-65
2021/12/11 06:57:37;;;;;;;6.20;2.30;;;;;;;;;;5013037;28;20958;-65
2021/12/11 07:00:05;;;;;;;3.80;2.50;;;;;;;;;;5014013;28;20772;-65
2021/12/11 07:02:32;;;;;;;3.60;2.50;;;;;;;;;;5016644;28;20419;-65
2021/12/11 07:04:58;;;;;;;3.40;2.20;;;;;;;;;;5016696;28;20415;-65
2021/12/11 07:07:27;;;;;;;2.50;2.17;;;;;;;;;;5016637;28;20404;-65
2021/12/11 07:09:55;;;;;;;6.47;3.00;;;;;;;;;;5015924;28;20418;-67
2021/12/11 07:12:21;;;;;;;2.00;1.80;;;;;;;;;;5015563;28;21020;-64
2021/12/11 07:14:48;;;;;;;3.57;2.30;;;;;;;;;;5001651;28;20459;-66
2021/12/11 07:17:14;;;;;;;2.80;1.83;;;;;;;;;;5009955;28;20573;-65
2021/12/11 07:19:40;;;;;;;3.33;2.50;;;;;;;;;;5016707;28;20412;-67
2021/12/11 07:22:06;;;;;;;3.77;2.47;;;;;;;;;;5016286;28;20466;-67
2021/12/11 07:24:37;;;;;;;3.80;2.90;;;;;;;;;;5016043;28;20418;-66
2021/12/11 07:27:05;;;;;;;3.10;2.33;;;;;;;;;;5016624;28;20943;-67
2021/12/11 07:29:32;;;;;;;3.47;2.43;;;;;;;;;;5029967;28;20495;-67
2021/12/11 07:31:58;;;;;;;3.63;2.37;;;;;;;;;;5035588;28;20429;-67
2021/12/11 07:34:24;;;;;;;3.20;2.30;;;;;;;;;;5033978;28;20473;-68
2021/12/11 07:36:51;;;;;;;2.60;1.87;;;;;;;;;;5009523;28;20412;-66
2021/12/11 07:39:19;;;;;;;2.60;2.10;;;;;;;;;;5016278;28;20414;-65
2021/12/11 07:41:45;;;;;;;5.50;2.40;;;;;;;;;;5013273;28;20482;-65
2021/12/11 07:44:12;;;;;;;2.50;2.20;;;;;;;;;;5015392;28;20765;-65
2021/12/11 07:46:38;;;;;;;2.37;2.03;;;;;;;;;;5016789;28;20825;-65
2021/12/11 07:49:05;;;;;;;4.70;2.60;;;;;;;;;;5015349;28;20923;-65
2021/12/11 07:51:32;;;;;;;3.10;2.13;;;;;;;;;;5009743;28;20416;-65
2021/12/11 07:53:59;;;;;;;2.87;2.07;;;;;;;;;;5012926;28;20478;-67
2021/12/11 07:56:25;;;;;;;3.13;2.10;;;;;;;;;;5012499;28;20891;-64
2021/12/11 07:58:52;;;;;;;3.10;2.40;;;;;;;;;;5015694;28;20798;-65
2021/12/11 08:01:18;;;;;;;2.83;2.00;;;;;;;;;;5015348;28;20436;-65
2021/12/11 08:03:44;;;;;;;3.03;2.23;;;;;;;;;;5015395;28;20432;-65
2021/12/11 08:06:11;;;;;;;2.45;1.50;;;;;;;;;;5015741;28;20411;-68
2021/12/11 08:08:39;;;;;;;2.63;1.80;;;;;;;;;;5014958;28;20180;-68
2021/12/11 08:11:06;;;;;;;2.47;2.00;;;;;;;;;;5012236;28;20420;-69
2021/12/11 08:13:33;;;;;;;2.00;1.77;;;;;;;;;;5008949;28;20472;-67
2021/12/11 08:15:59;;;;;;;2.33;2.00;;;;;;;;;;5015227;28;20410;-69
2021/12/11 08:18:26;;;;;;;2.33;1.90;;;;;;;;;;5015489;28;20403;-69
2021/12/11 08:20:53;;;;;;;2.30;2.03;;;;;;;;;;5011481;28;20412;-68
2021/12/11 08:23:19;;;;;;;2.97;2.40;;;;;;;;;;5006954;28;20419;-68
2021/12/11 08:25:46;;;;;;;2.90;2.30;;;;;;;;;;5015300;28;20419;-69
2021/12/11 08:28:14;;;;;;;3.00;2.43;;;;;;;;;;5015188;28;20396;-68
2021/12/11 08:30:42;;;;;;;2.93;2.40;;;;;;;;;;5014903;28;20404;-66
2021/12/11 08:33:08;;;;;;;3.33;2.33;;;;;;;;;;5015008;28;20833;-69
2021/12/11 08:35:34;;;;;;;5.50;3.30;;;;;;;;;;5013543;28;20542;-68
2021/12/11 08:38:00;;;;;;;3.60;2.63;;;;;;;;;;5010867;28;20426;-65
2021/12/11 08:40:29;;;;;;;3.20;2.60;;;;;;;;;;5003904;28;20408;-65
2021/12/11 08:42:55;;;;;;;3.20;2.87;;;;;;;;;;4999416;28;20435;-65
2021/12/11 08:45:24;;;;;;;3.87;3.27;;;;;;;;;;5008980;28;20495;-67
2021/12/11 08:47:56;;;;;;;3.80;3.17;;;;;;;;;;5014989;28;20411;-68
2021/12/11 08:50:25;;;;;;;4.50;3.47;;;;;;;;;;5014875;28;20456;-69
2021/12/11 08:52:51;;;;;;;5.43;3.77;;;;;;;;;;5013885;28;20450;-67
2021/12/11 08:55:22;;;;;;;3.43;2.77;;;;;;;;;;4997686;28;20799;-68
2021/12/11 08:57:49;;;;;;;4.70;4.20;;;;;;;;;;5007680;28;20906;-68
2021/12/11 09:00:18;;;;;;;4.60;3.43;;;;;;;;;;5014490;28;20505;-67
2021/12/11 09:02:50;;;;;;;4.77;3.63;;;;;;;;;;5013929;28;21000;-67
2021/12/11 09:05:19;;;;;;;5.17;3.57;;;;;;;;;;4996042;28;20945;-67
2021/12/11 09:07:49;;;;;;;5.23;3.13;;;;;;;;;;5014753;28;20412;-67
2021/12/11 09:10:25;;;;;;;3.93;3.53;;;;;;;;;;5014556;28;20423;-68
2021/12/11 09:12:51;;;;;;;4.30;3.33;;;;;;;;;;5012372;28;20576;-72
2021/12/11 09:15:34;;;;;;;4.13;3.50;;;;;;;;;;5042227;22;20180;-68
2021/12/11 09:18:08;;;;;;;4.20;3.70;;;;;;;;;;5047679;28;20834;-68
2021/12/11 09:20:37;;;;;;;4.63;4.23;;;;;;;;;;5051399;28;20410;-68
2021/12/11 09:23:16;;;;;;;4.37;3.97;;;;;;;;;;5053276;28;20390;-69
2021/12/11 09:25:45;;;;;;;5.27;4.20;;;;;;;;;;5047694;28;20477;-69
2021/12/11 09:28:14;;;;;;;3.97;3.67;;;;;;;;;;5034036;28;20418;-69
2021/12/11 09:30:47;;;;;;;5.97;4.50;;;;;;;;;;5033698;28;20416;-69
2021/12/11 09:33:18;;;;;;;5.10;4.60;;;;;;;;;;5033975;28;20475;-68
2021/12/11 09:35:56;;;;;;;4.00;3.63;;;;;;;;;;5033560;28;20439;-68
2021/12/11 09:38:33;;;;;;;4.40;4.00;;;;;;;;;;5033656;28;20751;-68
2021/12/11 09:40:59;;;;;;;4.80;4.10;;;;;;;;;;5033444;28;20872;-67
2021/12/11 09:43:40;;;;;;;5.13;4.63;;;;;;;;;;5033783;28;20407;-68
2021/12/11 09:46:07;;;;;;;4.83;3.60;;;;;;;;;;5033269;28;20556;-68
2021/12/11 09:48:33;;;;;;;9.13;5.20;;;;;;;;;;5033579;28;20406;-69
2021/12/11 09:51:04;;;;;;;6.27;4.67;;;;;;;;;;5033574;28;20414;-69
2021/12/11 09:53:33;;;;;;;7.10;4.40;;;;;;;;;;5033236;28;20391;-69
2021/12/11 09:55:59;;;;;;;4.90;4.10;;;;;;;;;;5033183;28;20427;-69
2021/12/11 09:58:29;;;;;;;5.03;4.00;;;;;;;;;;5033254;28;20396;-69
2021/12/11 10:00:55;;;;;;;5.03;4.63;;;;;;;;;;5033122;28;20457;-69
2021/12/11 10:03:23;;;;;;;4.37;3.90;;;;;;;;;;5033248;28;20410;-69
2021/12/11 10:05:56;;;;;;;4.63;4.17;;;;;;;;;;5033081;28;20425;-69
2021/12/11 10:08:40;;;;;;;4.77;4.07;;;;;;;;;;5033074;28;20422;-69
2021/12/11 10:11:09;;;;;;;4.93;4.43;;;;;;;;;;5033020;28;20464;-68
2021/12/11 10:13:39;;;;;;;4.50;4.10;;;;;;;;;;5032687;28;20482;-69
2021/12/11 10:16:05;;;;;;;4.70;4.17;;;;;;;;;;5032895;28;20533;-71
2021/12/11 10:18:31;;;;;;;5.00;4.50;;;;;;;;;;5032876;28;20490;-69
2021/12/11 10:21:06;;;;;;;4.03;3.63;;;;;;;;;;5033032;28;20395;-70
2021/12/11 10:23:34;;;;;;;4.77;4.27;;;;;;;;;;5033023;28;20747;-70
2021/12/11 10:26:01;;;;;;;7.33;4.00;;;;;;;;;;5032743;28;20419;-70
2021/12/11 10:28:28;;;;;;;4.07;3.67;;;;;;;;;;5032988;28;20852;-70
2021/12/11 10:31:09;;;;;;;4.47;4.07;;;;;;;;;;5032977;28;20932;-70
2021/12/11 10:33:35;;;;;;;4.43;4.03;;;;;;;;;;5032736;28;20391;-70
2021/12/11 10:36:04;;;;;;;4.37;3.50;;;;;;;;;;5035298;28;20415;-70
2021/12/11 10:38:30;;;;;;;4.80;4.23;;;;;;;;;;5036791;28;20901;-70
2021/12/11 10:40:57;;;;;;;4.00;3.33;;;;;;;;;;5036715;28;20407;-70
2021/12/11 10:43:32;;;;;;;4.57;4.17;;;;;;;;;;5037046;28;20775;-70
2021/12/11 10:45:59;;;;;;;6.00;4.10;;;;;;;;;;5036644;28;20562;-70
2021/12/11 10:48:28;;;;;;;5.20;4.53;;;;;;;;;;5036790;28;20401;-70
2021/12/11 10:50:57;;;;;;;4.83;3.80;;;;;;;;;;5036783;28;20502;-70
2021/12/11 10:53:24;;;;;;;7.03;4.53;;;;;;;;;;5036544;28;20395;-68
2021/12/11 10:55:51;;;;;;;4.70;4.17;;;;;;;;;;5036858;28;20422;-68
2021/12/11 10:58:22;;;;;;;4.30;3.30;;;;;;;;;;5036390;28;20435;-67
2021/12/11 11:00:51;;;;;;;4.97;3.60;;;;;;;;;;5036737;28;20862;-67
2021/12/11 11:03:18;;;;;;;5.53;4.40;;;;;;;;;;5036585;28;20395;-72
2021/12/11 11:05:44;;;;;;;4.63;4.23;;;;;;;;;;5036274;28;20423;-69
2021/12/11 11:08:10;;;;;;;4.73;3.90;;;;;;;;;;5036609;28;20399;-70
2021/12/11 11:10:41;;;;;;;4.10;3.70;;;;;;;;;;5036547;28;20407;-70
2021/12/11 11:13:10;;;;;;;4.27;3.60;;;;;;;;;;5036065;28;20460;-70
2021/12/11 11:15:36;;;;;;;4.47;3.63;;;;;;;;;;5035800;28;20811;-70
2021/12/11 11:18:02;;;;;;;9.30;4.50;;;;;;;;;;5018345;28;20438;-70
2021/12/11 11:20:31;;;;;;;4.50;4.10;;;;;;;;;;5036177;28;20803;-70
2021/12/11 11:22:57;;;;;;;4.97;4.23;;;;;;;;;;5035916;28;20399;-70
2021/12/11 11:25:25;;;;;;;4.70;4.20;;;;;;;;;;5035842;28;20430;-70
2021/12/11 11:27:56;;;;;;;5.70;5.10;;;;;;;;;;5036074;28;20402;-70
2021/12/11 11:30:27;;;;;;;4.83;4.00;;;;;;;;;;5035919;28;20479;-70
2021/12/11 11:32:54;;;;;;;4.83;4.30;;;;;;;;;;5018108;28;20398;-70
2021/12/11 11:35:21;;;;;;;5.00;3.80;;;;;;;;;;5035640;28;20663;-70
2021/12/11 11:37:49;;;;;;;4.90;4.37;;;;;;;;;;5035808;28;20765;-73
2021/12/11 11:40:19;;;;;;;7.20;5.40;;;;;;;;;;5017868;28;20413;-72
2021/12/11 11:42:45;;;;;;;4.33;3.93;;;;;;;;;;5035659;28;20456;-71
2021/12/11 11:45:12;;;;;;;3.60;3.30;;;;;;;;;;5035438;28;20443;-72
2021/12/11 11:47:39;;;;;;;6.20;5.17;;;;;;;;;;5034441;28;20406;-72
2021/12/11 11:50:06;;;;;;;5.07;4.07;;;;;;;;;;5035772;28;20412;-72
2021/12/11 11:52:32;;;;;;;5.17;3.90;;;;;;;;;;5035750;28;20461;-72
2021/12/11 11:55:00;;;;;;;4.97;4.50;;;;;;;;;;5035475;28;21079;-72
2021/12/11 11:57:28;;;;;;;5.70;4.10;;;;;;;;;;5035184;28;20494;-72
2021/12/11 11:59:55;;;;;;;6.20;3.67;;;;;;;;;;5035230;28;20852;-72
2021/12/11 12:02:23;;;;;;;4.53;4.10;;;;;;;;;;5035376;28;20442;-72
2021/12/11 12:04:51;;;;;;;4.73;4.03;;;;;;;;;;5035121;28;20493;-72
2021/12/11 12:07:24;;;;;;;4.27;3.80;;;;;;;;;;5035418;28;20454;-72
2021/12/11 12:09:51;;;;;;;5.50;5.00;;;;;;;;;;5035330;28;20387;-72
2021/12/11 12:12:17;;;;;;;5.33;4.77;;;;;;;;;;5035246;28;20405;-72
2021/12/11 12:14:44;;;;;;;5.10;4.10;;;;;;;;;;5035099;28;20450;-72
2021/12/11 12:17:13;;;;;;;5.90;4.73;;;;;;;;;;5034923;28;20445;-72
2021/12/11 12:19:39;;;;;;;5.63;5.07;;;;;;;;;;5033610;28;20450;-72
2021/12/11 12:22:07;;;;;;;4.80;4.33;;;;;;;;;;5032802;28;20454;-72
2021/12/11 12:24:34;;;;;;;5.23;4.20;;;;;;;;;;5033417;28;20411;-66
2021/12/11 12:27:02;;;;;;;6.00;4.20;;;;;;;;;;5038493;28;20487;-65
2021/12/11 12:29:28;;;;;;;4.70;4.30;;;;;;;;;;5038634;28;20450;-65
2021/12/11 12:31:58;;;;;;;5.20;4.67;;;;;;;;;;5037799;28;20467;-65
2021/12/11 12:34:25;;;;;;;5.27;4.40;;;;;;;;;;5037183;28;20528;-65
2021/12/11 12:36:51;;;;;;;5.20;4.70;;;;;;;;;;5036422;28;20434;-73
2021/12/11 12:39:19;;;;;;;7.53;4.53;;;;;;;;;;5033745;28;20403;-68
2021/12/11 12:41:53;;;;;;;4.97;4.17;;;;;;;;;;5032797;28;20909;-67
2021/12/11 12:44:20;;;;;;;5.40;4.03;;;;;;;;;;5023167;28;20414;-72
2021/12/11 12:47:03;;;;;;;4.43;3.73;;;;;;;;;;5033315;28;20481;-71
2021/12/11 12:49:31;;;;;;;4.50;4.10;;;;;;;;;;5036764;28;20413;-72
2021/12/11 12:51:58;;;;;;;4.07;3.67;;;;;;;;;;5054615;28;20501;-69
2021/12/11 12:54:25;;;;;;;4.43;3.83;;;;;;;;;;5054881;28;20513;-71
2021/12/11 12:57:14;;;;;;;4.97;3.47;;;;;;;;;;5037662;28;20434;-70
2021/12/11 12:59:42;;;;;;;5.37;4.20;;;;;;;;;;5032775;28;20510;-70
2021/12/11 13:02:12;;;;;;;5.25;4.03;;;;;;;;;;5033481;28;20405;-68
2021/12/11 13:04:43;;;;;;;4.33;3.93;;;;;;;;;;5017076;28;20230;-68
2021/12/11 13:07:12;;;;;;;4.53;4.13;;;;;;;;;;5034649;28;20804;-68
2021/12/11 13:09:43;;;;;;;5.20;4.43;;;;;;;;;;5034260;28;20446;-67
2021/12/11 13:12:17;;;;;;;4.47;4.07;;;;;;;;;;5034140;28;20428;-67
2021/12/11 13:14:44;;;;;;;4.60;4.00;;;;;;;;;;5033227;28;20533;-67
2021/12/11 13:17:12;;;;;;;6.60;5.20;;;;;;;;;;5033047;28;20533;-67
2021/12/11 13:19:46;;;;;;;7.53;4.70;;;;;;;;;;5034450;28;20881;-67
2021/12/11 13:22:23;;;;;;;6.70;4.60;;;;;;;;;;5032958;28;20490;-67
2021/12/11 13:24:51;;;;;;;5.47;4.90;;;;;;;;;;5032681;28;20403;-67
2021/12/11 13:27:21;;;;;;;6.77;6.10;;;;;;;;;;5033739;28;20513;-68
2021/12/11 13:29:52;;;;;;;5.53;4.93;;;;;;;;;;5033558;28;20454;-67
2021/12/11 13:32:21;;;;;;;6.03;4.83;;;;;;;;;;5033833;28;20407;-67
2021/12/11 13:34:49;;;;;;;6.47;5.87;;;;;;;;;;5032783;28;20451;-66
2021/12/11 13:37:16;;;;;;;7.23;5.57;;;;;;;;;;5033453;28;20437;-66
2021/12/11 13:39:43;;;;;;;8.13;5.97;;;;;;;;;;5033398;28;20485;-66
2021/12/11 13:42:12;;;;;;;6.23;5.63;;;;;;;;;;5033474;28;20502;-68
2021/12/11 13:44:40;;;;;;;6.77;5.63;;;;;;;;;;5033148;28;20407;-68
2021/12/11 13:47:09;;;;;;;6.70;6.00;;;;;;;;;;5033121;28;20439;-68
2021/12/11 13:49:35;;;;;;;7.47;6.10;;;;;;;;;;5033115;28;20426;-66
2021/12/11 13:52:01;;;;;;;8.93;6.57;;;;;;;;;;5033117;28;21069;-68
2021/12/11 13:54:28;;;;;;;8.07;6.30;;;;;;;;;;5032557;28;20485;-68
2021/12/11 13:56:56;;;;;;;7.77;6.43;;;;;;;;;;5033156;28;20492;-68
2021/12/11 13:59:23;;;;;;;7.67;6.67;;;;;;;;;;5033173;28;20411;-67
2021/12/11 14:01:51;;;;;;;10.10;7.87;;;;;;;;;;5033537;28;20415;-69
2021/12/11 14:04:18;;;;;;;8.60;7.40;;;;;;;;;;5032627;28;20940;-67
2021/12/11 14:06:49;;;;;;;8.10;6.60;;;;;;;;;;5014320;28;20443;-67
2021/12/11 14:09:21;;;;;;;9.33;7.50;;;;;;;;;;5031672;28;20403;-68
2021/12/11 14:11:47;;;;;;;9.60;7.50;;;;;;;;;;5032688;28;20419;-68
2021/12/11 14:14:13;;;;;;;13.03;7.93;;;;;;;;;;5032860;28;20459;-68
2021/12/11 14:16:39;;;;;;;8.30;7.40;;;;;;;;;;5032279;28;20917;-68
2021/12/11 14:19:06;;;;;;;11.30;8.53;;;;;;;;;;5032055;28;20418;-68
2021/12/11 14:21:33;;;;;;;11.17;7.53;;;;;;;;;;5032726;28;20426;-68
2021/12/11 14:24:00;;;;;;;10.30;8.20;;;;;;;;;;5013628;28;20419;-68
2021/12/11 14:26:26;;;;;;;11.97;8.67;;;;;;;;;;5032155;28;20438;-67
2021/12/11 14:28:53;;;;;;;11.23;8.97;;;;;;;;;;5031354;28;20510;-67
2021/12/11 14:31:20;;;;;;;12.10;10.27;;;;;;;;;;5031226;28;20419;-68
2021/12/11 14:33:47;;;;;;;11.97;9.50;;;;;;;;;;5032064;28;20545;-67
2021/12/11 14:36:16;;;;;;;12.00;9.50;;;;;;;;;;5032913;28;20480;-67
2021/12/11 14:38:43;;;;;;;47.10;22.83;;;;;;;;;;5032455;28;20481;-66
2021/12/11 14:41:09;;;;;;;12.00;9.77;;;;;;;;;;5032448;28;20426;-66
2021/12/11 14:43:36;;;;;;;11.97;9.33;;;;;;;;;;5032616;28;20477;-66
2021/12/11 14:46:03;;;;;;;11.47;9.50;;;;;;;;;;5032239;28;20819;-65
2021/12/11 14:48:30;;;;;;;13.63;9.67;;;;;;;;;;5032491;28;20410;-64
2021/12/11 14:51:11;;;;;;;14.87;9.83;;;;;;;;;;5031574;28;20411;-67
2021/12/11 14:53:40;;;;;;;14.40;10.07;;;;;;;;;;5032319;28;20483;-67
2021/12/11 14:56:11;;;;;;;15.57;11.37;;;;;;;;;;5032771;28;20498;-67
2021/12/11 14:58:39;;;;;;;13.37;10.83;;;;;;;;;;5032752;28;20423;-66
2021/12/11 15:01:11;;;;;;;11.50;9.37;;;;;;;;;;5033246;28;20443;-67
2021/12/11 15:03:38;;;;;;;13.80;9.00;;;;;;;;;;5032599;28;20410;-67
2021/12/11 15:06:04;;;;;;;14.17;9.90;;;;;;;;;;5032630;28;20880;-66
2021/12/11 15:08:31;;;;;;;14.83;10.93;;;;;;;;;;5032719;28;20403;-67